Time;durP1;ratioP1;P1;durP2;ratioP2;P2;SDS_P1;SDS_P2;PMS_P1;PMS_P2;Temp;Humidity;BMP_temperature;BMP_pressure;BME280_temperature;BME280_humidity;BME280_pressure;Samples;Min_cycle;Max_cycle;Signal;HPM_P1;HPM_P2
2022/12/01 00:01:40;;;;;;;82.43;14.50;;;7.30;99.90;;;;;;5059416;28;20199;-87
2022/12/01 00:04:06;;;;;;;79.10;13.47;;;7.20;99.90;;;;;;5061670;28;20161;-87
2022/12/01 00:06:32;;;;;;;81.73;14.50;;;7.20;99.90;;;;;;5059353;28;20260;-87
2022/12/01 00:11:42;;;;;;;81.25;14.77;;;7.20;99.90;;;;;;5061004;28;20206;-87
2022/12/01 00:14:08;;;;;;;81.80;16.17;;;7.10;99.90;;;;;;5060800;28;20641;-87
2022/12/01 00:16:35;;;;;;;83.33;16.70;;;7.10;99.90;;;;;;5061671;28;20210;-87
2022/12/01 00:19:01;;;;;;;82.10;15.80;;;7.10;99.90;;;;;;5060589;28;20179;-87
2022/12/01 00:21:27;;;;;;;80.53;15.13;;;7.10;99.90;;;;;;5059844;28;20188;-87
2022/12/01 00:23:55;;;;;;;81.35;14.50;;;7.20;99.90;;;;;;5058064;28;20423;-86
2022/12/01 00:26:22;;;;;;;78.32;12.48;;;7.20;99.90;;;;;;5060414;28;20271;-87
2022/12/01 00:28:53;;;;;;;77.07;13.45;;;7.20;99.90;;;;;;5061331;28;20206;-87
2022/12/01 00:31:19;;;;;;;81.32;14.02;;;7.10;99.90;;;;;;5060064;28;20184;-87
2022/12/01 00:33:45;;;;;;;84.20;14.50;;;7.10;99.90;;;;;;5057310;28;20164;-86
2022/12/01 00:36:14;;;;;;;78.13;15.67;;;7.10;99.90;;;;;;5059376;28;20165;-87
2022/12/01 00:38:42;;;;;;;85.53;15.70;;;7.10;99.90;;;;;;5058328;28;20410;-87
2022/12/01 00:41:08;;;;;;;81.88;14.25;;;7.10;99.90;;;;;;5060408;28;20271;-87
2022/12/01 00:43:34;;;;;;;77.43;13.63;;;7.10;99.90;;;;;;5119343;22;20609;-87
2022/12/01 00:46:00;;;;;;;81.67;14.10;;;7.20;99.90;;;;;;5038521;28;20396;-87
2022/12/01 00:48:26;;;;;;;81.40;13.73;;;7.20;99.90;;;;;;5038021;28;20661;-87
2022/12/01 00:50:52;;;;;;;77.10;14.32;;;7.20;99.90;;;;;;5037151;28;20185;-87
2022/12/01 00:53:19;;;;;;;76.60;14.30;;;7.10;99.90;;;;;;5039937;28;20172;-87
2022/12/01 00:55:47;;;;;;;78.88;14.05;;;7.10;99.90;;;;;;5039207;28;20210;-87
2022/12/01 00:58:19;;;;;;;78.47;15.70;;;7.10;99.90;;;;;;5039008;28;20646;-86
2022/12/01 01:00:45;;;;;;;78.05;14.55;;;7.10;99.90;;;;;;5038430;28;20189;-87
2022/12/01 01:03:10;;;;;;;79.80;14.70;;;7.10;99.90;;;;;;5038623;28;20175;-87
2022/12/01 01:05:38;;;;;;;78.33;15.00;;;7.10;99.90;;;;;;5037782;28;20162;-87
2022/12/01 01:08:11;;;;;;;82.43;15.25;;;7.10;99.90;;;;;;5039120;28;20531;-87
2022/12/01 01:10:38;;;;;;;78.53;13.93;;;7.00;99.90;;;;;;5038543;28;20196;-87
2022/12/01 01:13:04;;;;;;;78.30;13.38;;;7.10;99.90;;;;;;5038014;28;20260;-87
2022/12/01 01:15:30;;;;;;;83.57;15.40;;;7.10;99.90;;;;;;5039168;28;20189;-87
2022/12/01 01:17:55;;;;;;;79.20;13.20;;;7.10;99.90;;;;;;5039781;28;20415;-87
2022/12/01 01:20:21;;;;;;;79.13;14.30;;;7.10;99.90;;;;;;5039633;28;20176;-87
2022/12/01 01:22:47;;;;;;;81.63;14.07;;;7.10;99.90;;;;;;5038746;28;20638;-87
2022/12/01 01:25:15;;;;;;;80.93;13.90;;;7.10;99.90;;;;;;5040154;28;20404;-87
2022/12/01 01:27:41;;;;;;;82.28;13.50;;;7.20;99.90;;;;;;5039385;28;20259;-87
2022/12/01 01:30:07;;;;;;;81.57;13.67;;;7.10;99.90;;;;;;5040608;28;20220;-87
2022/12/01 01:32:33;;;;;;;81.65;13.60;;;7.10;99.90;;;;;;5039373;28;20165;-87
2022/12/01 01:35:01;;;;;;;78.20;13.80;;;7.10;99.90;;;;;;5039062;28;20530;-87
2022/12/01 01:37:27;;;;;;;83.00;14.75;;;7.10;99.90;;;;;;5037311;28;20174;-87
2022/12/01 01:39:53;;;;;;;83.97;14.20;;;7.10;99.90;;;;;;5031983;28;20689;-88
2022/12/01 01:42:21;;;;;;;88.33;15.90;;;7.10;99.90;;;;;;5033224;28;20172;-88
2022/12/01 01:44:52;;;;;;;83.68;15.85;;;7.10;99.90;;;;;;5033071;28;20185;-87
2022/12/01 01:47:23;;;;;;;85.43;17.17;;;7.10;99.90;;;;;;5033175;28;20589;-88
2022/12/01 01:49:49;;;;;;;86.63;15.60;;;7.10;99.90;;;;;;5033112;28;20185;-88
2022/12/01 01:52:15;;;;;;;86.17;15.90;;;7.10;99.90;;;;;;5032360;28;20184;-88
2022/12/01 01:54:45;;;;;;;88.03;15.73;;;7.10;99.90;;;;;;5032884;28;20901;-88
2022/12/01 01:57:15;;;;;;;87.00;17.80;;;7.20;99.90;;;;;;5031890;28;20643;-88
2022/12/01 01:59:50;;;;;;;84.60;16.58;;;7.10;99.90;;;;;;5034343;28;20185;-87
2022/12/01 02:02:16;;;;;;;85.47;17.95;;;7.10;99.90;;;;;;5037028;28;20156;-88
2022/12/01 02:04:49;;;;;;;88.50;19.90;;;7.10;99.90;;;;;;5035436;28;20169;-88
2022/12/01 02:07:17;;;;;;;82.80;17.42;;;7.00;99.90;;;;;;5036505;28;20529;-88
2022/12/01 02:09:44;;;;;;;86.00;17.70;;;7.00;99.90;;;;;;5035295;28;20190;-88
2022/12/01 02:12:30;;;;;;;88.03;17.60;;;7.00;99.90;;;;;;5036601;28;20161;-88
2022/12/01 02:15:17;;;;;;;93.07;21.02;;;7.00;99.90;;;;;;5035347;28;20161;-88
2022/12/01 02:17:49;;;;;;;87.57;18.42;;;7.00;99.90;;;;;;5036811;28;20219;-88
2022/12/01 02:20:14;;;;;;;90.60;19.60;;;7.00;99.90;;;;;;5036416;28;20209;-88
2022/12/01 02:22:58;;;;;;;91.10;19.73;;;7.00;99.90;;;;;;5036318;28;20677;-88
2022/12/01 02:25:53;;;;;;;92.00;20.95;;;7.00;99.90;;;;;;5036279;28;20156;-88
2022/12/01 02:28:55;;;;;;;91.43;19.27;;;7.00;99.90;;;;;;5034989;28;20170;-88
2022/12/01 02:31:26;;;;;;;92.13;18.77;;;7.10;99.90;;;;;;5038199;28;20188;-87
2022/12/01 02:34:09;;;;;;;91.07;19.60;;;7.10;99.90;;;;;;5034912;28;20166;-88
2022/12/01 02:36:47;;;;;;;95.22;21.02;;;7.00;99.90;;;;;;5036828;28;20514;-87
2022/12/01 02:39:28;;;;;;;97.45;21.00;;;7.00;99.90;;;;;;5035700;28;20626;-87
2022/12/01 02:42:07;;;;;;;99.72;22.27;;;7.00;99.90;;;;;;5036064;28;20168;-87
2022/12/01 02:44:37;;;;;;;98.38;22.55;;;7.00;99.90;;;;;;5034617;28;20687;-88
2022/12/01 02:47:13;;;;;;;94.55;20.48;;;7.00;99.90;;;;;;5035885;28;20220;-88
2022/12/01 02:49:57;;;;;;;96.47;23.30;;;7.00;99.90;;;;;;5036177;28;20149;-88
2022/12/01 02:52:25;;;;;;;92.35;20.58;;;7.00;99.90;;;;;;5035886;28;20146;-88
2022/12/01 02:54:52;;;;;;;100.45;22.80;;;7.00;99.90;;;;;;5035743;28;20185;-88
2022/12/01 02:57:22;;;;;;;101.10;21.10;;;7.00;99.90;;;;;;5036037;28;20546;-88
2022/12/01 02:59:52;;;;;;;97.63;21.63;;;7.00;99.90;;;;;;5036180;28;20185;-88
2022/12/01 03:02:55;;;;;;;105.57;23.67;;;7.00;99.90;;;;;;5035692;28;20153;-88
2022/12/01 03:05:39;;;;;;;100.45;23.70;;;6.90;99.90;;;;;;5030523;28;20601;-88
2022/12/01 03:08:12;;;;;;;101.63;22.98;;;6.90;99.90;;;;;;5035715;28;20180;-89
2022/12/01 03:10:51;;;;;;;98.47;22.02;;;7.00;99.90;;;;;;5034912;28;20565;-89
2022/12/01 03:13:32;;;;;;;94.63;20.88;;;7.00;99.90;;;;;;5035821;28;20150;-88
2022/12/01 03:16:17;;;;;;;98.03;23.52;;;7.00;99.90;;;;;;5035494;28;20547;-88
2022/12/01 03:18:58;;;;;;;101.28;23.20;;;7.00;99.90;;;;;;5035787;28;20149;-89
2022/12/01 03:21:57;;;;;;;99.38;24.20;;;7.00;99.90;;;;;;5033971;28;20217;-88
2022/12/01 03:24:26;;;;;;;98.82;23.08;;;7.00;99.90;;;;;;5035094;28;20199;-88
2022/12/01 03:26:56;;;;;;;98.32;22.38;;;7.00;99.90;;;;;;5033841;28;20275;-88
2022/12/01 03:29:37;;;;;;;97.55;22.52;;;6.90;99.90;;;;;;5035632;28;20237;-88
2022/12/01 03:32:11;;;;;;;103.07;22.88;;;6.90;99.90;;;;;;5035610;28;20480;-88
2022/12/01 03:34:46;;;;;;;101.90;22.00;;;6.90;99.90;;;;;;5035237;28;20171;-88
2022/12/01 03:37:36;;;;;;;104.63;21.50;;;6.80;99.90;;;;;;5033874;28;20189;-88
2022/12/01 03:40:09;;;;;;;97.05;22.05;;;6.80;99.90;;;;;;5034968;28;20187;-88
2022/12/01 03:42:46;;;;;;;97.90;23.83;;;6.80;99.90;;;;;;5035113;28;20216;-88
2022/12/01 03:45:21;;;;;;;95.72;21.48;;;6.80;99.90;;;;;;5034857;28;20177;-88
2022/12/01 03:47:47;;;;;;;98.20;20.83;;;6.80;99.90;;;;;;5033459;28;20199;-88
2022/12/01 03:50:14;;;;;;;98.50;22.13;;;6.80;99.90;;;;;;5033362;28;20243;-89
2022/12/01 03:53:22;;;;;;;99.80;21.52;;;6.80;99.90;;;;;;5033495;28;20176;-89
2022/12/01 03:55:56;;;;;;;100.60;21.48;;;6.80;99.90;;;;;;5034209;28;20615;-89
2022/12/01 03:58:32;;;;;;;100.05;22.25;;;6.80;99.90;;;;;;5034776;28;20154;-89
2022/12/01 04:01:01;;;;;;;100.30;22.73;;;6.90;99.90;;;;;;5033198;28;20189;-89
2022/12/01 04:03:47;;;;;;;100.18;22.30;;;6.80;99.90;;;;;;5034435;28;20177;-89
2022/12/01 04:06:13;;;;;;;102.30;23.50;;;6.90;99.90;;;;;;5033084;28;20200;-89
2022/12/01 04:08:41;;;;;;;105.88;21.60;;;6.90;99.90;;;;;;5033391;28;20294;-89
2022/12/01 04:13:52;;;;;;;102.38;22.35;;;6.90;99.90;;;;;;5034803;28;20161;-88
2022/12/01 04:16:17;;;;;;;104.43;23.80;;;6.90;99.90;;;;;;5034178;28;20165;-89
2022/12/01 04:18:43;;;;;;;110.50;26.40;;;7.00;99.90;;;;;;5034142;28;20169;-89
2022/12/01 04:21:09;;;;;;;110.03;26.10;;;7.00;99.90;;;;;;5032801;28;20223;-88
2022/12/01 04:26:21;;;;;;;115.95;26.30;;;6.90;99.90;;;;;;5034158;28;20610;-89
2022/12/01 04:28:47;;;;;;;111.20;27.27;;;6.80;99.90;;;;;;5033998;28;20173;-89
2022/12/01 04:31:13;;;;;;;110.70;26.20;;;6.90;99.90;;;;;;5032632;28;20559;-89
2022/12/01 04:33:38;;;;;;;116.10;24.63;;;6.90;99.90;;;;;;5034164;28;20165;-88
2022/12/01 04:36:05;;;;;;;110.07;27.37;;;6.90;99.90;;;;;;5034067;28;20161;-89
2022/12/01 04:38:35;;;;;;;102.47;24.88;;;6.90;99.90;;;;;;5032545;28;20252;-89
2022/12/01 04:41:11;;;;;;;117.60;27.25;;;7.00;99.90;;;;;;5032977;28;20185;-89
2022/12/01 04:43:37;;;;;;;120.03;26.70;;;6.90;99.90;;;;;;5032399;28;20265;-89
2022/12/01 04:46:03;;;;;;;114.53;25.27;;;6.90;99.90;;;;;;5032279;28;20215;-89
2022/12/01 04:48:48;;;;;;;112.43;25.27;;;6.90;99.90;;;;;;5034158;28;20400;-89
2022/12/01 04:51:14;;;;;;;113.97;25.30;;;6.90;99.90;;;;;;5033598;28;20181;-89
2022/12/01 04:53:39;;;;;;;116.13;25.83;;;6.80;99.90;;;;;;5033840;28;20161;-88
2022/12/01 04:56:06;;;;;;;113.40;23.83;;;6.80;99.90;;;;;;5032539;28;20470;-89
2022/12/01 04:58:32;;;;;;;123.38;27.13;;;6.80;99.90;;;;;;5032563;28;20161;-89
2022/12/01 05:01:16;;;;;;;112.43;25.48;;;6.80;99.90;;;;;;5032066;28;20213;-88
2022/12/01 05:03:43;;;;;;;110.18;23.60;;;6.80;99.90;;;;;;5033426;28;20153;-88
2022/12/01 05:06:16;;;;;;;113.82;23.98;;;6.80;99.90;;;;;;5033647;28;20157;-89
2022/12/01 05:08:42;;;;;;;113.90;25.10;;;6.80;99.90;;;;;;5033684;28;20167;-88
2022/12/01 05:11:10;;;;;;;113.40;23.63;;;6.80;99.90;;;;;;5033216;28;20268;-88
2022/12/01 05:13:41;;;;;;;111.32;26.08;;;6.80;99.90;;;;;;5033275;28;20164;-88
2022/12/01 05:16:09;;;;;;;113.03;25.30;;;6.80;99.90;;;;;;5033258;28;20157;-88
2022/12/01 05:18:35;;;;;;;111.70;24.85;;;6.80;99.90;;;;;;5031995;28;20574;-89
2022/12/01 05:21:03;;;;;;;120.95;23.67;;;6.80;99.90;;;;;;5033144;28;20177;-88
2022/12/01 05:23:31;;;;;;;129.70;26.55;;;6.80;99.90;;;;;;5033120;28;20639;-88
2022/12/01 05:25:57;;;;;;;115.25;24.83;;;6.70;99.90;;;;;;5033066;28;20248;-88
2022/12/01 05:28:25;;;;;;;113.87;25.27;;;6.70;99.90;;;;;;5033116;28;20632;-88
2022/12/01 05:30:52;;;;;;;112.20;24.77;;;6.70;99.90;;;;;;5031750;28;20473;-88
2022/12/01 05:33:18;;;;;;;116.82;26.85;;;6.80;99.90;;;;;;5033744;28;20256;-88
2022/12/01 05:35:44;;;;;;;113.07;25.60;;;6.80;99.90;;;;;;5039800;28;20246;-88
2022/12/01 05:38:10;;;;;;;126.47;26.27;;;6.80;99.90;;;;;;5039661;28;20403;-88
2022/12/01 05:40:37;;;;;;;128.32;28.00;;;6.70;99.90;;;;;;5039973;28;20247;-88
2022/12/01 05:43:03;;;;;;;128.40;26.73;;;6.70;99.90;;;;;;5038204;28;20181;-88
2022/12/01 05:45:29;;;;;;;113.82;26.35;;;6.70;99.90;;;;;;5039575;28;20161;-88
2022/12/01 05:47:56;;;;;;;119.95;26.30;;;6.70;99.90;;;;;;5038429;28;20192;-88
2022/12/01 05:50:23;;;;;;;117.53;29.85;;;6.70;99.90;;;;;;5038459;28;20255;-88
2022/12/01 05:55:21;;;;;;;123.10;26.52;;;6.70;99.90;;;;;;5062516;28;20204;-86
2022/12/01 05:57:47;;;;;;;112.77;26.73;;;6.70;99.90;;;;;;5065449;28;20160;-86
2022/12/01 06:00:13;;;;;;;119.30;26.30;;;6.70;99.90;;;;;;5057159;28;20185;-86
2022/12/01 06:02:41;;;;;;;122.20;27.15;;;6.70;99.90;;;;;;5043870;28;20715;-86
2022/12/01 06:05:07;;;;;;;118.05;27.52;;;6.70;99.90;;;;;;5044484;28;20184;-86
2022/12/01 06:07:34;;;;;;;118.50;26.77;;;6.70;99.90;;;;;;5045684;28;20203;-87
2022/12/01 06:10:01;;;;;;;115.63;25.58;;;6.70;99.90;;;;;;5044929;28;20184;-86
2022/12/01 06:12:27;;;;;;;117.60;28.10;;;6.70;99.90;;;;;;5045186;28;20166;-86
2022/12/01 06:14:52;;;;;;;113.00;24.63;;;6.70;99.90;;;;;;5045133;28;20648;-86
2022/12/01 06:17:18;;;;;;;107.13;24.70;;;6.60;99.90;;;;;;5045077;28;20212;-86
2022/12/01 06:19:46;;;;;;;120.73;24.43;;;6.60;99.90;;;;;;5044610;28;20199;-86
2022/12/01 06:22:11;;;;;;;111.88;27.13;;;6.70;99.90;;;;;;5045462;28;20176;-86
2022/12/01 06:24:37;;;;;;;118.33;28.90;;;6.70;99.90;;;;;;5044510;28;20169;-86
2022/12/01 06:27:03;;;;;;;122.17;27.50;;;6.70;99.90;;;;;;5043814;28;20756;-86
2022/12/01 06:29:29;;;;;;;110.27;24.83;;;6.70;99.90;;;;;;5044429;28;20176;-86
2022/12/01 06:31:54;;;;;;;108.57;23.40;;;6.70;99.90;;;;;;5043563;28;20627;-87
2022/12/01 06:34:20;;;;;;;115.03;26.43;;;6.80;99.90;;;;;;5043054;28;20177;-87
2022/12/01 06:36:46;;;;;;;115.50;26.43;;;6.70;99.90;;;;;;5044311;28;20905;-86
2022/12/01 06:39:14;;;;;;;109.03;25.67;;;6.70;99.90;;;;;;5042739;28;20165;-87
2022/12/01 06:41:40;;;;;;;104.68;25.15;;;6.70;99.90;;;;;;5042248;28;20189;-86
2022/12/01 06:44:06;;;;;;;113.47;25.07;;;6.70;99.90;;;;;;5042473;28;20199;-87
2022/12/01 06:46:31;;;;;;;119.67;26.53;;;6.70;99.90;;;;;;5039107;28;20193;-87
2022/12/01 06:48:57;;;;;;;118.83;26.70;;;6.60;99.90;;;;;;5040773;28;20157;-87
2022/12/01 06:51:23;;;;;;;110.30;25.57;;;6.70;99.90;;;;;;5040957;28;20185;-86
2022/12/01 06:53:53;;;;;;;113.20;26.37;;;6.70;99.90;;;;;;5039144;28;20642;-87
2022/12/01 06:56:20;;;;;;;107.53;25.20;;;6.70;99.90;;;;;;5040625;28;20173;-86
2022/12/01 06:58:46;;;;;;;101.38;23.67;;;6.70;99.90;;;;;;5041146;28;20249;-87
2022/12/01 07:01:12;;;;;;;112.03;24.85;;;6.70;99.90;;;;;;5040019;28;20713;-86
2022/12/01 07:03:38;;;;;;;104.70;24.40;;;6.60;99.90;;;;;;5041185;28;20203;-87
2022/12/01 07:06:05;;;;;;;112.80;28.42;;;6.70;99.90;;;;;;5039107;28;20412;-86
2022/12/01 07:08:32;;;;;;;110.97;23.08;;;6.70;99.90;;;;;;5039383;28;20165;-86
2022/12/01 07:10:57;;;;;;;100.70;23.13;;;6.70;99.90;;;;;;5040686;28;20181;-87
2022/12/01 07:13:23;;;;;;;109.97;25.80;;;6.60;99.90;;;;;;5039028;28;20168;-86
2022/12/01 07:15:49;;;;;;;107.53;25.17;;;6.60;99.90;;;;;;5041165;28;20150;-87
2022/12/01 07:18:15;;;;;;;110.83;24.53;;;6.60;99.90;;;;;;5039681;28;20773;-86
2022/12/01 07:20:40;;;;;;;105.00;24.77;;;6.60;99.90;;;;;;5039340;28;20197;-86
2022/12/01 07:23:06;;;;;;;118.47;31.33;;;6.60;99.90;;;;;;5039241;28;20413;-87
2022/12/01 07:25:32;;;;;;;109.33;26.47;;;6.60;99.90;;;;;;5040001;28;20408;-86
2022/12/01 07:27:57;;;;;;;104.10;24.33;;;6.70;99.90;;;;;;5041306;28;20189;-86
2022/12/01 07:30:23;;;;;;;110.60;26.40;;;6.60;99.90;;;;;;5040896;28;20177;-86
2022/12/01 07:32:48;;;;;;;100.23;22.90;;;6.60;99.90;;;;;;5041504;28;20165;-86
2022/12/01 07:35:14;;;;;;;101.87;23.90;;;6.60;99.90;;;;;;5041327;28;20161;-86
2022/12/01 07:37:40;;;;;;;109.77;25.23;;;6.60;99.90;;;;;;5039477;28;20227;-86
2022/12/01 07:40:06;;;;;;;101.47;23.67;;;6.60;99.90;;;;;;5040082;28;20481;-86
2022/12/01 07:42:32;;;;;;;101.22;22.10;;;6.70;99.90;;;;;;5039653;28;20169;-86
2022/12/01 07:44:58;;;;;;;101.97;22.67;;;6.60;99.90;;;;;;5040040;28;20180;-86
2022/12/01 07:47:23;;;;;;;114.27;26.00;;;6.60;99.90;;;;;;5040621;28;20685;-86
2022/12/01 07:49:49;;;;;;;101.37;23.50;;;6.70;99.90;;;;;;5041348;28;20554;-86
2022/12/01 07:52:14;;;;;;;100.13;22.10;;;6.70;99.90;;;;;;5040587;28;20556;-86
2022/12/01 07:54:40;;;;;;;107.30;25.97;;;6.70;99.90;;;;;;5040821;28;20181;-86
2022/12/01 07:57:06;;;;;;;101.23;21.87;;;6.70;99.90;;;;;;5040971;28;20169;-86
2022/12/01 07:59:31;;;;;;;102.17;22.57;;;6.70;99.90;;;;;;5039821;28;20630;-86
2022/12/01 08:01:58;;;;;;;102.57;25.30;;;6.70;99.90;;;;;;5037901;28;20180;-86
2022/12/01 08:04:23;;;;;;;98.88;25.40;;;6.70;99.90;;;;;;5040396;28;20167;-86
2022/12/01 08:06:49;;;;;;;101.47;22.53;;;6.70;99.90;;;;;;5038354;28;20284;-84
2022/12/01 08:09:15;;;;;;;101.80;21.77;;;6.70;99.90;;;;;;5039736;28;20537;-86
2022/12/01 08:11:40;;;;;;;89.47;18.73;;;6.70;99.90;;;;;;5040745;28;20428;-86
2022/12/01 08:14:06;;;;;;;97.20;19.67;;;6.80;99.90;;;;;;5039035;28;20173;-86
2022/12/01 08:16:32;;;;;;;96.27;20.20;;;6.80;99.90;;;;;;5038997;28;20300;-85
2022/12/01 08:18:57;;;;;;;94.33;20.33;;;6.80;99.90;;;;;;5039474;28;20165;-86
2022/12/01 08:21:24;;;;;;;101.23;24.03;;;6.80;99.90;;;;;;5040370;28;20189;-86
2022/12/01 08:23:54;;;;;;;105.18;23.92;;;6.80;99.90;;;;;;5041423;28;20169;-86
2022/12/01 08:26:21;;;;;;;110.40;20.92;;;6.90;99.90;;;;;;5040293;28;20172;-86
2022/12/01 08:28:47;;;;;;;101.43;20.65;;;6.80;99.90;;;;;;5040498;28;20180;-86
2022/12/01 08:31:15;;;;;;;98.00;20.85;;;6.80;99.90;;;;;;5043134;28;20234;-85
2022/12/01 08:33:40;;;;;;;100.38;23.23;;;6.90;99.90;;;;;;5043377;28;20196;-86
2022/12/01 08:36:06;;;;;;;95.40;20.47;;;6.90;99.90;;;;;;5044030;28;20173;-86
2022/12/01 08:38:33;;;;;;;102.65;21.20;;;6.90;99.90;;;;;;5043878;28;20158;-86
2022/12/01 08:41:06;;;;;;;106.65;22.85;;;6.90;99.90;;;;;;5043224;28;20276;-85
2022/12/01 08:43:32;;;;;;;100.40;22.92;;;6.90;99.90;;;;;;5043609;28;20150;-86
2022/12/01 08:45:59;;;;;;;100.45;21.55;;;6.90;99.90;;;;;;5041671;28;20169;-86
2022/12/01 08:48:28;;;;;;;108.65;27.48;;;6.90;99.90;;;;;;5039568;28;20197;-87
2022/12/01 08:51:05;;;;;;;100.50;20.98;;;6.80;99.90;;;;;;5041046;28;20185;-86
2022/12/01 08:53:32;;;;;;;93.68;20.10;;;6.90;99.90;;;;;;5039106;28;20644;-86
2022/12/01 08:56:04;;;;;;;97.10;21.17;;;6.90;99.90;;;;;;5041508;28;20145;-86
2022/12/01 08:58:30;;;;;;;108.30;22.73;;;6.90;99.90;;;;;;5040003;28;20161;-86
2022/12/01 09:01:24;;;;;;;96.90;20.50;;;7.00;99.90;;;;;;5041123;28;20266;-86
2022/12/01 09:04:03;;;;;;;101.55;21.63;;;7.00;99.90;;;;;;5036993;28;20177;-86
2022/12/01 09:06:31;;;;;;;105.20;23.02;;;7.00;99.90;;;;;;5040680;28;20573;-86
2022/12/01 09:09:00;;;;;;;95.82;20.85;;;7.00;99.90;;;;;;5038070;28;20181;-86
2022/12/01 09:11:26;;;;;;;108.97;21.55;;;7.00;99.90;;;;;;5038752;28;20185;-86
2022/12/01 09:13:52;;;;;;;100.90;20.40;;;7.00;99.90;;;;;;5040909;28;20211;-86
2022/12/01 09:16:18;;;;;;;107.03;21.60;;;7.10;99.90;;;;;;5039436;28;20165;-86
2022/12/01 09:18:45;;;;;;;101.55;21.23;;;7.10;99.90;;;;;;5040006;28;20216;-86
2022/12/01 09:21:15;;;;;;;99.75;21.20;;;7.10;99.90;;;;;;5040373;28;20201;-86
2022/12/01 09:23:41;;;;;;;108.10;21.35;;;7.10;99.90;;;;;;5038341;28;20516;-86
2022/12/01 09:26:07;;;;;;;107.70;20.63;;;7.00;99.90;;;;;;5038124;28;20204;-85
2022/12/01 09:28:34;;;;;;;104.35;23.50;;;7.00;99.90;;;;;;5039353;28;20400;-86
2022/12/01 09:31:06;;;;;;;102.25;24.85;;;7.00;99.90;;;;;;5039310;28;20196;-86
2022/12/01 09:33:32;;;;;;;102.75;22.25;;;7.00;99.90;;;;;;5039665;28;20173;-86
2022/12/01 09:35:59;;;;;;;102.45;21.33;;;7.00;99.90;;;;;;5039439;28;20180;-86
2022/12/01 09:38:27;;;;;;;100.05;23.42;;;7.00;99.90;;;;;;5038545;28;20196;-87
2022/12/01 09:40:53;;;;;;;97.75;22.73;;;7.00;99.90;;;;;;5039062;28;20243;-86
2022/12/01 09:43:26;;;;;;;107.97;21.03;;;7.00;99.90;;;;;;5040595;28;20622;-86
2022/12/01 09:46:08;;;;;;;94.68;20.40;;;7.00;99.90;;;;;;5040197;28;20789;-86
2022/12/01 09:48:41;;;;;;;96.90;18.10;;;7.10;99.90;;;;;;5039402;28;20188;-86
2022/12/01 09:51:27;;;;;;;93.03;18.15;;;7.10;99.90;;;;;;5038201;28;20185;-86
2022/12/01 09:53:58;;;;;;;95.28;20.08;;;7.10;99.90;;;;;;5039662;28;20197;-86
2022/12/01 09:56:25;;;;;;;97.93;20.38;;;7.10;99.90;;;;;;5038216;28;20172;-86
2022/12/01 09:59:00;;;;;;;92.60;19.65;;;7.10;99.90;;;;;;5040498;28;20166;-86
2022/12/01 10:01:41;;;;;;;91.15;19.30;;;7.10;99.90;;;;;;5037693;28;20192;-86
2022/12/01 10:04:14;;;;;;;96.50;19.67;;;7.20;99.90;;;;;;5040260;28;20506;-86
2022/12/01 10:06:46;;;;;;;95.18;19.25;;;7.20;99.90;;;;;;5039220;28;20216;-85
2022/12/01 10:09:23;;;;;;;102.38;21.60;;;7.20;99.90;;;;;;5038163;28;20184;-86
2022/12/01 10:11:55;;;;;;;98.55;20.50;;;7.20;99.90;;;;;;5039446;28;20152;-86
2022/12/01 10:14:21;;;;;;;94.35;20.45;;;7.30;99.90;;;;;;5038089;28;20161;-86
2022/12/01 10:17:02;;;;;;;100.53;21.03;;;7.30;99.90;;;;;;5039589;28;20161;-86
2022/12/01 10:19:59;;;;;;;92.90;18.75;;;7.40;99.90;;;;;;5038702;28;20173;-86
2022/12/01 10:22:58;;;;;;;90.60;20.33;;;7.40;99.90;;;;;;5012468;28;20267;-86
2022/12/01 10:25:27;;;;;;;90.43;18.70;;;7.40;99.90;;;;;;5042935;28;20211;-86
2022/12/01 10:28:14;;;;;;;93.38;20.25;;;7.40;99.90;;;;;;5042397;28;20272;-86
2022/12/01 10:30:48;;;;;;;87.38;16.67;;;7.40;99.90;;;;;;5040414;28;20189;-84
2022/12/01 10:33:21;;;;;;;89.25;19.02;;;7.40;99.90;;;;;;5040409;28;20215;-85
2022/12/01 10:35:47;;;;;;;91.38;17.60;;;7.40;99.90;;;;;;5041516;28;20149;-85
2022/12/01 10:38:25;;;;;;;88.80;17.70;;;7.40;99.90;;;;;;5041548;28;20208;-86
2022/12/01 10:40:52;;;;;;;90.43;16.65;;;7.40;99.90;;;;;;5041100;28;20200;-85
2022/12/01 10:43:23;;;;;;;86.30;17.45;;;7.30;99.90;;;;;;5039784;28;20192;-85
2022/12/01 10:45:49;;;;;;;86.55;16.13;;;7.40;99.90;;;;;;5040390;28;20207;-85
2022/12/01 10:48:20;;;;;;;87.95;16.13;;;7.40;99.90;;;;;;5040603;28;20551;-85
2022/12/01 10:50:51;;;;;;;86.70;14.77;;;7.40;99.90;;;;;;5040100;28;20197;-84
2022/12/01 10:53:29;;;;;;;84.57;15.88;;;7.30;99.90;;;;;;5041489;28;20173;-85
2022/12/01 10:56:03;;;;;;;83.00;15.20;;;7.30;99.90;;;;;;5041106;28;20176;-84
2022/12/01 10:58:49;;;;;;;86.68;17.95;;;7.40;99.90;;;;;;5041515;28;20149;-84
2022/12/01 11:01:20;;;;;;;82.63;15.13;;;7.30;99.90;;;;;;5039098;28;20189;-85
2022/12/01 11:04:05;;;;;;;83.93;15.43;;;7.20;99.90;;;;;;5039247;28;20169;-84
2022/12/01 11:06:37;;;;;;;83.15;14.05;;;7.20;99.90;;;;;;5039034;28;20192;-84
2022/12/01 11:09:22;;;;;;;85.10;14.48;;;7.30;99.90;;;;;;5038974;28;20172;-84
2022/12/01 11:12:03;;;;;;;87.22;15.23;;;7.30;99.90;;;;;;5041028;28;20157;-84
2022/12/01 11:14:49;;;;;;;79.50;14.65;;;7.30;99.90;;;;;;5040697;28;20230;-86
2022/12/01 11:17:21;;;;;;;83.97;14.10;;;7.40;99.90;;;;;;5038394;28;20581;-85
2022/12/01 11:19:47;;;;;;;82.85;12.98;;;7.30;99.90;;;;;;5040483;28;20181;-86
2022/12/01 11:22:21;;;;;;;81.97;14.00;;;7.30;99.90;;;;;;5041685;28;20168;-86
2022/12/01 11:25:19;;;;;;;81.38;13.07;;;7.40;99.90;;;;;;5040303;28;20173;-86
2022/12/01 11:27:50;;;;;;;81.13;13.00;;;7.40;99.90;;;;;;5028762;28;20552;-86
2022/12/01 11:30:23;;;;;;;81.65;12.95;;;7.40;99.90;;;;;;5042323;28;20185;-86
2022/12/01 11:32:54;;;;;;;78.63;12.10;;;7.40;99.90;;;;;;5039629;28;20161;-85
2022/12/01 11:35:23;;;;;;;83.63;13.40;;;7.40;99.90;;;;;;5040855;28;20165;-86
2022/12/01 11:37:55;;;;;;;84.45;13.82;;;7.50;99.90;;;;;;5041281;28;20589;-86
2022/12/01 11:40:28;;;;;;;86.95;14.98;;;7.50;99.90;;;;;;5040505;28;20196;-86
2022/12/01 11:42:57;;;;;;;90.90;15.30;;;7.50;99.90;;;;;;5041458;28;20169;-86
2022/12/01 11:45:28;;;;;;;83.03;14.30;;;7.50;99.90;;;;;;5040019;28;20169;-86
2022/12/01 11:48:12;;;;;;;89.20;17.20;;;7.50;99.90;;;;;;5041348;28;20249;-85
2022/12/01 11:50:41;;;;;;;84.53;16.02;;;7.50;99.90;;;;;;5041314;28;20183;-86
2022/12/01 11:53:10;;;;;;;82.97;14.98;;;7.40;99.90;;;;;;5119424;22;20270;31
2022/12/01 11:55:38;;;;;;;84.95;13.90;;;7.50;99.90;;;;;;4993140;28;20213;-88
2022/12/01 11:58:07;;;;;;;84.75;15.77;;;7.50;99.90;;;;;;4979213;28;20170;-88
2022/12/01 12:00:56;;;;;;;85.70;15.45;;;7.50;99.90;;;;;;4995538;28;20683;-88
2022/12/01 12:03:51;;;;;;;84.78;14.60;;;7.50;99.90;;;;;;4995198;28;20249;-88
2022/12/01 12:06:31;;;;;;;86.50;15.50;;;7.50;99.90;;;;;;4994893;28;20174;-88
2022/12/01 12:09:41;;;;;;;85.90;14.38;;;7.50;99.90;;;;;;4995206;28;20158;-88
2022/12/01 12:12:27;;;;;;;83.32;14.68;;;7.40;99.90;;;;;;4973554;28;20178;-88
2022/12/01 12:15:16;;;;;;;81.28;13.63;;;7.40;99.90;;;;;;4957784;28;20195;-88
2022/12/01 12:18:10;;;;;;;82.80;13.05;;;7.30;99.90;;;;;;4964120;28;20187;-88
2022/12/01 12:21:02;;;;;;;81.68;13.40;;;7.30;99.90;;;;;;4957004;28;20218;-88
2022/12/01 12:23:37;;;;;;;80.82;15.00;;;7.40;99.90;;;;;;4973217;28;20525;-88
2022/12/01 12:26:23;;;;;;;81.03;14.77;;;7.40;99.90;;;;;;4993569;28;20171;-88
2022/12/01 12:29:07;;;;;;;83.15;16.27;;;7.40;99.90;;;;;;4993474;28;20178;-88
2022/12/01 12:31:48;;;;;;;89.63;15.98;;;7.40;99.90;;;;;;4993337;28;20182;-89
2022/12/01 12:34:32;;;;;;;88.00;16.15;;;7.40;99.90;;;;;;4993385;28;20176;-89
2022/12/01 12:37:19;;;;;;;85.00;16.30;;;7.30;99.90;;;;;;4993432;28;20174;-88
2022/12/01 12:40:16;;;;;;;86.63;15.10;;;7.40;99.90;;;;;;4993366;28;20241;-88
2022/12/01 12:43:03;;;;;;;89.72;14.70;;;7.40;99.90;;;;;;4992594;28;20217;-88
2022/12/01 12:46:01;;;;;;;85.22;16.10;;;7.50;99.90;;;;;;4993289;28;20181;-88
2022/12/01 12:49:04;;;;;;;86.68;14.57;;;7.50;99.90;;;;;;4985639;28;20668;-89
2022/12/01 12:51:43;;;;;;;90.57;16.70;;;7.30;99.90;;;;;;4994493;28;20655;-88
2022/12/01 12:54:35;;;;;;;88.72;16.65;;;7.20;99.90;;;;;;4993210;28;20186;-89
2022/12/01 12:57:22;;;;;;;87.25;16.45;;;7.30;99.90;;;;;;4993365;28;20197;-89
2022/12/01 12:59:55;;;;;;;90.20;16.92;;;7.30;99.90;;;;;;4994361;28;20569;-88
2022/12/01 13:02:33;;;;;;;89.85;16.75;;;7.30;99.90;;;;;;4995057;28;20163;-88
2022/12/01 13:05:32;;;;;;;93.45;19.05;;;7.40;99.90;;;;;;4994826;28;20182;-88
2022/12/01 13:08:00;;;;;;;94.85;19.90;;;7.20;99.90;;;;;;4995512;28;20627;-89